Hotchkiss School, Connecticut
Current Conditions -  °F | °C
As of 3:18 AM on Monday 24 Nov 2014 (Local Time) from KPOU Reporting Station
Light Rain Light Rain  
Wind Chill: 51°   Ceiling: 1300
Heat Index: 51°   Visibility: 4mi
Dew Point: 49°   Wind: 6mph
Humidity: 92%   Direction: 120°ESE
Pressure: 29.81"   Gusts: NA
Location:  41.9547°N, 73.4419°W
Report Text: KPOU 240818Z AUTO 12005KT 4SM -RA BR SCT009 BKN013 OVC036 11/09 A2981 RMK AO2 PRESFR P0002 T01060094 TSNO
Loading
Personal Weather Stations






























Interactive Weather Map New forecast layout! Learn more

10-Day Weather Forecast

Advertisements
Track Severe Weather on mobile